Pagrindinis puslapis
METAR-TAF:

METAR-TAF

Oro uostai :

Ernšioldsvikas, Švedija

platuma: 63-24N, ilguma: 018-58E, Aukštis: 103 m

Dabartinis oras

Ataskaita buvo paskelbta 51 minutes, ne 04:20 UTC
Vėjas 2 kt nuo kintamojo kryptimis
Temperatūra 7°C
Drėgmė 61%
Slėgis 1024 hPa
Matomumas 10 km arba daugiau
nėra debesų žemiau 1500 m ir nėra kamuolinių lietaus debesų

METAR: ESNO 220420Z VRB02KT CAVOK 07/00 Q1024

Laikas: 07:11 (05:11 UTC)

Prognozė

Ataskaita buvo paskelbta 2 valandos ir 41 minutes, ne 02:30 UTC
Prognozė galioja nuo 22 metu 03 UTC su 22 metu 10 UTC
Vėjas 4 kt iš Šiaurės
Matomumas 10 km arba daugiau
nėra debesų žemiau 1500 m ir nėra kamuolinių lietaus debesų

TAF: ESNO 220230Z 2203/2210 35004KT CAVOK

Orai ataskaitas ir orų prognozės (METAR, TAF).

turimą stotys yra geltonos ir raudonos taškus žemėlapyje.

Perkelti pele per norėdami pamatyti stoties vardą.

Tada spustelėkite, norėdami matyti oro stebėjimo ir prognozės.

Norėdami pakeisti žemėlapį: spustelėkite ant žalios mygtukų su juodo kryžiaus žemyn,; žalią mygtuką su brūkšneliu, jei norite nutolinti; arba žalių rodyklių gretimoms žemėlapius.


METAR-TAF: